Main page
METAR-TAF:

METAR-TAF

Airports :

RAF Valley

Valley, Wales

latitude: 53-15N, longitude: 004-32W, elevation: 1 m

Current weather observation

The report was made 31 minutes ago, at 22:50 UTC
Wind 12 kt from the West
Temperature 12°C
Humidity 82%
Pressure 1016 hPa
Visibility 10 km or more

METAR: EGOV 252250Z AUTO 26012KT 9999 NCD 12/09 Q1016

Time: 00:21 (23:21 UTC)

Forecast

The report was made 10 hours and 5 minutes ago, at 13:16 UTC
Forecast valid from 25 at 15 UTC to 25 at 19 UTC
Wind 14 kt from the West/Southwest
Visibility 10 km or more
Few clouds at a height of 2000 ft
Scattered clouds at a height of 3200 ft

TAF: EGOV 251316Z 2515/2519 24014KT 9999 FEW020 SCT032

Weather observations and forecasts of more than 4000 airports (METAR and TAF reports).

The available stations are represented by yellow and red dots on the map.

Hover mouse over dot to see the name of the station.

Then click to see weather observations and forecasts.

To change the map : click on the green buttons with a black cross to zoom in, on the green button with a dash to zoom out, or on the green arrows for adjacent maps.


METAR-TAF: